sensor_id;sensor_type;location;lat;lon;timestamp;temperature;humidity
35531;DHT22;21637;53.352;-6.356;2023-05-31T00:02:17;12.10;99.90
35531;DHT22;21637;53.352;-6.356;2023-05-31T00:04:43;12.10;99.90
35531;DHT22;21637;53.352;-6.356;2023-05-31T00:07:09;12.10;99.90
35531;DHT22;21637;53.352;-6.356;2023-05-31T00:09:35;12.20;99.90
35531;DHT22;21637;53.352;-6.356;2023-05-31T00:12:00;12.10;99.90
35531;DHT22;21637;53.352;-6.356;2023-05-31T00:14:26;12.10;99.90
35531;DHT22;21637;53.352;-6.356;2023-05-31T00:16:52;12.00;99.90
35531;DHT22;21637;53.352;-6.356;2023-05-31T00:19:18;11.90;99.90
35531;DHT22;21637;53.352;-6.356;2023-05-31T00:21:45;12.00;99.90
35531;DHT22;21637;53.352;-6.356;2023-05-31T00:24:16;11.90;99.90
35531;DHT22;21637;53.352;-6.356;2023-05-31T00:26:41;11.90;99.90
35531;DHT22;21637;53.352;-6.356;2023-05-31T00:29:07;11.90;99.90
35531;DHT22;21637;53.352;-6.356;2023-05-31T00:31:33;11.80;99.90
35531;DHT22;21637;53.352;-6.356;2023-05-31T00:33:59;11.80;99.90
35531;DHT22;21637;53.352;-6.356;2023-05-31T00:36:24;11.70;99.90
35531;DHT22;21637;53.352;-6.356;2023-05-31T00:38:50;11.70;99.90
35531;DHT22;21637;53.352;-6.356;2023-05-31T00:41:16;11.60;99.90
35531;DHT22;21637;53.352;-6.356;2023-05-31T00:43:42;11.60;99.90
35531;DHT22;21637;53.352;-6.356;2023-05-31T00:46:41;11.50;99.90
35531;DHT22;21637;53.352;-6.356;2023-05-31T00:49:06;11.50;99.90
35531;DHT22;21637;53.352;-6.356;2023-05-31T00:51:33;11.50;99.90
35531;DHT22;21637;53.352;-6.356;2023-05-31T00:54:01;11.50;99.90
35531;DHT22;21637;53.352;-6.356;2023-05-31T00:56:28;11.50;99.90
35531;DHT22;21637;53.352;-6.356;2023-05-31T00:58:56;11.50;99.90
35531;DHT22;21637;53.352;-6.356;2023-05-31T01:01:23;11.50;99.90
35531;DHT22;21637;53.352;-6.356;2023-05-31T01:03:55;11.60;99.90
35531;DHT22;21637;53.352;-6.356;2023-05-31T01:06:22;11.50;99.90
35531;DHT22;21637;53.352;-6.356;2023-05-31T01:08:49;11.50;99.90
35531;DHT22;21637;53.352;-6.356;2023-05-31T01:16:53;11.50;99.90
35531;DHT22;21637;53.352;-6.356;2023-05-31T01:22:19;11.40;99.90
35531;DHT22;21637;53.352;-6.356;2023-05-31T01:27:50;11.30;99.90
35531;DHT22;21637;53.352;-6.356;2023-05-31T01:30:17;11.30;99.90
35531;DHT22;21637;53.352;-6.356;2023-05-31T01:32:44;11.20;99.90
35531;DHT22;21637;53.352;-6.356;2023-05-31T01:35:10;11.30;99.90
35531;DHT22;21637;53.352;-6.356;2023-05-31T01:37:36;11.30;99.90
35531;DHT22;21637;53.352;-6.356;2023-05-31T01:40:01;11.30;99.90
35531;DHT22;21637;53.352;-6.356;2023-05-31T01:42:29;11.30;99.90
35531;DHT22;21637;53.352;-6.356;2023-05-31T01:44:57;11.20;99.90
35531;DHT22;21637;53.352;-6.356;2023-05-31T01:47:23;11.20;99.90
35531;DHT22;21637;53.352;-6.356;2023-05-31T01:49:49;11.20;99.90
35531;DHT22;21637;53.352;-6.356;2023-05-31T01:52:17;11.30;99.90
35531;DHT22;21637;53.352;-6.356;2023-05-31T01:54:44;11.30;99.90
35531;DHT22;21637;53.352;-6.356;2023-05-31T01:57:10;11.30;99.90
35531;DHT22;21637;53.352;-6.356;2023-05-31T01:59:37;11.30;99.90
35531;DHT22;21637;53.352;-6.356;2023-05-31T02:02:04;11.40;99.90
35531;DHT22;21637;53.352;-6.356;2023-05-31T02:04:30;11.30;99.90
35531;DHT22;21637;53.352;-6.356;2023-05-31T02:06:56;11.30;99.90
35531;DHT22;21637;53.352;-6.356;2023-05-31T02:09:23;11.30;99.90
35531;DHT22;21637;53.352;-6.356;2023-05-31T02:11:49;11.20;99.90
35531;DHT22;21637;53.352;-6.356;2023-05-31T02:14:14;11.20;99.90
35531;DHT22;21637;53.352;-6.356;2023-05-31T02:16:40;11.20;99.90
35531;DHT22;21637;53.352;-6.356;2023-05-31T02:19:06;11.20;99.90
35531;DHT22;21637;53.352;-6.356;2023-05-31T02:21:35;11.10;99.90
35531;DHT22;21637;53.352;-6.356;2023-05-31T02:24:01;11.00;99.90
35531;DHT22;21637;53.352;-6.356;2023-05-31T02:26:27;11.00;99.90
35531;DHT22;21637;53.352;-6.356;2023-05-31T02:28:53;11.00;99.90
35531;DHT22;21637;53.352;-6.356;2023-05-31T02:31:18;11.00;99.90
35531;DHT22;21637;53.352;-6.356;2023-05-31T02:33:45;10.90;99.90
35531;DHT22;21637;53.352;-6.356;2023-05-31T02:36:11;10.90;99.90
35531;DHT22;21637;53.352;-6.356;2023-05-31T02:38:37;10.90;99.90
35531;DHT22;21637;53.352;-6.356;2023-05-31T02:41:03;10.90;99.90
35531;DHT22;21637;53.352;-6.356;2023-05-31T02:43:29;10.90;99.90
35531;DHT22;21637;53.352;-6.356;2023-05-31T02:45:56;10.90;99.90
35531;DHT22;21637;53.352;-6.356;2023-05-31T02:48:22;10.90;99.90
35531;DHT22;21637;53.352;-6.356;2023-05-31T02:50:48;10.90;99.90
35531;DHT22;21637;53.352;-6.356;2023-05-31T02:53:13;10.80;99.90
35531;DHT22;21637;53.352;-6.356;2023-05-31T02:55:39;10.80;99.90
35531;DHT22;21637;53.352;-6.356;2023-05-31T02:58:06;10.70;99.90
35531;DHT22;21637;53.352;-6.356;2023-05-31T03:00:32;10.80;99.90
35531;DHT22;21637;53.352;-6.356;2023-05-31T03:02:58;10.70;99.90
35531;DHT22;21637;53.352;-6.356;2023-05-31T03:05:24;10.60;99.90
35531;DHT22;21637;53.352;-6.356;2023-05-31T03:07:51;10.50;99.90
35531;DHT22;21637;53.352;-6.356;2023-05-31T03:10:17;10.50;99.90
35531;DHT22;21637;53.352;-6.356;2023-05-31T03:12:43;10.50;99.90
35531;DHT22;21637;53.352;-6.356;2023-05-31T03:15:09;10.40;99.90
35531;DHT22;21637;53.352;-6.356;2023-05-31T03:17:35;10.30;99.90
35531;DHT22;21637;53.352;-6.356;2023-05-31T03:20:04;10.40;99.90
35531;DHT22;21637;53.352;-6.356;2023-05-31T03:22:32;10.30;99.90
35531;DHT22;21637;53.352;-6.356;2023-05-31T03:24:58;10.30;99.90
35531;DHT22;21637;53.352;-6.356;2023-05-31T03:27:23;10.30;99.90
35531;DHT22;21637;53.352;-6.356;2023-05-31T03:29:50;10.30;99.90
35531;DHT22;21637;53.352;-6.356;2023-05-31T03:32:16;10.20;99.90
35531;DHT22;21637;53.352;-6.356;2023-05-31T03:34:41;10.30;99.90
35531;DHT22;21637;53.352;-6.356;2023-05-31T03:37:07;10.20;99.90
35531;DHT22;21637;53.352;-6.356;2023-05-31T03:39:33;10.30;99.90
35531;DHT22;21637;53.352;-6.356;2023-05-31T03:42:00;10.30;99.90
35531;DHT22;21637;53.352;-6.356;2023-05-31T03:44:27;10.20;99.90
35531;DHT22;21637;53.352;-6.356;2023-05-31T03:46:52;10.20;99.90
35531;DHT22;21637;53.352;-6.356;2023-05-31T03:49:18;10.20;99.90
35531;DHT22;21637;53.352;-6.356;2023-05-31T03:51:45;10.20;99.90
35531;DHT22;21637;53.352;-6.356;2023-05-31T03:54:11;10.10;99.90
35531;DHT22;21637;53.352;-6.356;2023-05-31T03:56:36;10.10;99.90
35531;DHT22;21637;53.352;-6.356;2023-05-31T03:59:02;10.10;99.90
35531;DHT22;21637;53.352;-6.356;2023-05-31T04:01:29;10.10;99.90
35531;DHT22;21637;53.352;-6.356;2023-05-31T04:03:54;10.10;99.90
35531;DHT22;21637;53.352;-6.356;2023-05-31T04:06:20;10.20;99.90
35531;DHT22;21637;53.352;-6.356;2023-05-31T04:08:46;10.10;99.90
35531;DHT22;21637;53.352;-6.356;2023-05-31T04:11:12;10.20;99.90
35531;DHT22;21637;53.352;-6.356;2023-05-31T04:13:38;10.20;99.90
35531;DHT22;21637;53.352;-6.356;2023-05-31T04:16:03;10.30;99.90
35531;DHT22;21637;53.352;-6.356;2023-05-31T04:18:30;10.20;99.90
35531;DHT22;21637;53.352;-6.356;2023-05-31T04:20:55;10.20;99.90
35531;DHT22;21637;53.352;-6.356;2023-05-31T04:23:21;10.20;99.90
35531;DHT22;21637;53.352;-6.356;2023-05-31T04:25:47;10.20;99.90
35531;DHT22;21637;53.352;-6.356;2023-05-31T04:28:13;10.20;99.90
35531;DHT22;21637;53.352;-6.356;2023-05-31T04:30:40;10.20;99.90
35531;DHT22;21637;53.352;-6.356;2023-05-31T04:33:06;10.20;99.90
35531;DHT22;21637;53.352;-6.356;2023-05-31T04:35:32;10.10;99.90
35531;DHT22;21637;53.352;-6.356;2023-05-31T04:37:59;10.10;99.90
35531;DHT22;21637;53.352;-6.356;2023-05-31T04:40:28;10.20;99.90
35531;DHT22;21637;53.352;-6.356;2023-05-31T04:43:00;10.10;99.90
35531;DHT22;21637;53.352;-6.356;2023-05-31T04:45:28;10.10;99.90
35531;DHT22;21637;53.352;-6.356;2023-05-31T04:47:56;10.10;99.90
35531;DHT22;21637;53.352;-6.356;2023-05-31T04:50:22;10.10;99.90
35531;DHT22;21637;53.352;-6.356;2023-05-31T04:52:48;10.10;99.90
35531;DHT22;21637;53.352;-6.356;2023-05-31T04:55:14;10.10;99.90
35531;DHT22;21637;53.352;-6.356;2023-05-31T04:57:40;10.20;99.90
35531;DHT22;21637;53.352;-6.356;2023-05-31T05:00:06;10.30;99.90
35531;DHT22;21637;53.352;-6.356;2023-05-31T05:02:42;10.40;99.90
35531;DHT22;21637;53.352;-6.356;2023-05-31T05:05:08;10.60;99.90
35531;DHT22;21637;53.352;-6.356;2023-05-31T05:07:35;10.80;99.90
35531;DHT22;21637;53.352;-6.356;2023-05-31T05:10:01;11.00;99.90
35531;DHT22;21637;53.352;-6.356;2023-05-31T05:12:26;11.10;99.90
35531;DHT22;21637;53.352;-6.356;2023-05-31T05:14:52;11.20;99.90
35531;DHT22;21637;53.352;-6.356;2023-05-31T05:17:18;11.30;99.90
35531;DHT22;21637;53.352;-6.356;2023-05-31T05:19:43;11.50;99.90
35531;DHT22;21637;53.352;-6.356;2023-05-31T05:22:09;11.70;99.90
35531;DHT22;21637;53.352;-6.356;2023-05-31T05:24:36;11.90;99.90
35531;DHT22;21637;53.352;-6.356;2023-05-31T05:27:02;12.00;99.90
35531;DHT22;21637;53.352;-6.356;2023-05-31T05:29:28;12.10;99.90
35531;DHT22;21637;53.352;-6.356;2023-05-31T05:31:54;12.20;99.90
35531;DHT22;21637;53.352;-6.356;2023-05-31T05:34:20;12.40;99.90
35531;DHT22;21637;53.352;-6.356;2023-05-31T05:36:45;12.40;99.90
35531;DHT22;21637;53.352;-6.356;2023-05-31T05:39:12;12.50;99.90
35531;DHT22;21637;53.352;-6.356;2023-05-31T05:41:38;12.60;99.90
35531;DHT22;21637;53.352;-6.356;2023-05-31T05:44:03;12.70;99.90
35531;DHT22;21637;53.352;-6.356;2023-05-31T05:46:29;12.80;99.90
35531;DHT22;21637;53.352;-6.356;2023-05-31T05:48:55;13.00;99.90
35531;DHT22;21637;53.352;-6.356;2023-05-31T05:51:22;13.10;99.90
35531;DHT22;21637;53.352;-6.356;2023-05-31T05:53:47;13.30;99.90
35531;DHT22;21637;53.352;-6.356;2023-05-31T05:56:13;13.40;99.90
35531;DHT22;21637;53.352;-6.356;2023-05-31T05:58:45;13.60;99.90
35531;DHT22;21637;53.352;-6.356;2023-05-31T06:01:14;13.70;99.90
35531;DHT22;21637;53.352;-6.356;2023-05-31T06:03:48;13.90;99.90
35531;DHT22;21637;53.352;-6.356;2023-05-31T06:06:14;14.00;99.90
35531;DHT22;21637;53.352;-6.356;2023-05-31T06:08:42;14.10;99.90
35531;DHT22;21637;53.352;-6.356;2023-05-31T06:11:08;14.30;99.90
35531;DHT22;21637;53.352;-6.356;2023-05-31T06:13:34;14.40;99.90
35531;DHT22;21637;53.352;-6.356;2023-05-31T06:16:01;14.60;99.90
35531;DHT22;21637;53.352;-6.356;2023-05-31T06:18:27;14.70;99.90
35531;DHT22;21637;53.352;-6.356;2023-05-31T06:20:53;14.80;99.90
35531;DHT22;21637;53.352;-6.356;2023-05-31T06:23:21;14.90;99.90
35531;DHT22;21637;53.352;-6.356;2023-05-31T06:25:46;14.80;99.90
35531;DHT22;21637;53.352;-6.356;2023-05-31T06:28:12;14.90;99.90
35531;DHT22;21637;53.352;-6.356;2023-05-31T06:30:38;15.00;99.90
35531;DHT22;21637;53.352;-6.356;2023-05-31T06:33:03;14.90;99.90
35531;DHT22;21637;53.352;-6.356;2023-05-31T06:35:29;15.00;99.90
35531;DHT22;21637;53.352;-6.356;2023-05-31T06:37:55;15.00;99.90
35531;DHT22;21637;53.352;-6.356;2023-05-31T06:40:21;15.20;99.90
35531;DHT22;21637;53.352;-6.356;2023-05-31T06:42:47;15.40;99.90
35531;DHT22;21637;53.352;-6.356;2023-05-31T06:45:13;15.60;99.90
35531;DHT22;21637;53.352;-6.356;2023-05-31T06:47:39;15.80;99.90
35531;DHT22;21637;53.352;-6.356;2023-05-31T06:50:06;16.00;99.90
35531;DHT22;21637;53.352;-6.356;2023-05-31T06:52:32;16.20;99.90
35531;DHT22;21637;53.352;-6.356;2023-05-31T06:54:57;16.20;99.90
35531;DHT22;21637;53.352;-6.356;2023-05-31T06:57:23;16.30;99.90
35531;DHT22;21637;53.352;-6.356;2023-05-31T06:59:49;16.30;99.90
35531;DHT22;21637;53.352;-6.356;2023-05-31T07:02:16;16.30;99.90
35531;DHT22;21637;53.352;-6.356;2023-05-31T07:04:41;16.30;99.90
35531;DHT22;21637;53.352;-6.356;2023-05-31T07:07:08;16.30;99.90
35531;DHT22;21637;53.352;-6.356;2023-05-31T07:09:35;16.40;99.90
35531;DHT22;21637;53.352;-6.356;2023-05-31T07:12:01;16.50;99.90
35531;DHT22;21637;53.352;-6.356;2023-05-31T07:14:30;16.60;99.90
35531;DHT22;21637;53.352;-6.356;2023-05-31T07:16:56;16.50;99.90
35531;DHT22;21637;53.352;-6.356;2023-05-31T07:19:21;16.50;99.90
35531;DHT22;21637;53.352;-6.356;2023-05-31T07:21:47;16.60;99.90
35531;DHT22;21637;53.352;-6.356;2023-05-31T07:24:13;16.60;99.90
35531;DHT22;21637;53.352;-6.356;2023-05-31T07:26:39;16.30;99.90
35531;DHT22;21637;53.352;-6.356;2023-05-31T07:29:04;16.30;99.90
35531;DHT22;21637;53.352;-6.356;2023-05-31T07:31:30;16.40;99.90
35531;DHT22;21637;53.352;-6.356;2023-05-31T07:33:56;16.40;99.90
35531;DHT22;21637;53.352;-6.356;2023-05-31T07:36:22;16.40;99.90
35531;DHT22;21637;53.352;-6.356;2023-05-31T07:38:51;16.50;99.90
35531;DHT22;21637;53.352;-6.356;2023-05-31T07:41:20;16.60;99.90
35531;DHT22;21637;53.352;-6.356;2023-05-31T07:43:46;16.50;99.90
35531;DHT22;21637;53.352;-6.356;2023-05-31T07:46:12;16.50;99.90
35531;DHT22;21637;53.352;-6.356;2023-05-31T07:48:38;16.60;99.90
35531;DHT22;21637;53.352;-6.356;2023-05-31T07:51:04;16.70;99.90
35531;DHT22;21637;53.352;-6.356;2023-05-31T07:53:30;16.70;99.90
35531;DHT22;21637;53.352;-6.356;2023-05-31T07:55:56;16.50;99.90
35531;DHT22;21637;53.352;-6.356;2023-05-31T07:58:21;16.30;99.90
35531;DHT22;21637;53.352;-6.356;2023-05-31T08:00:47;16.30;99.90
35531;DHT22;21637;53.352;-6.356;2023-05-31T08:03:15;16.20;99.90
35531;DHT22;21637;53.352;-6.356;2023-05-31T08:05:41;16.20;99.90
35531;DHT22;21637;53.352;-6.356;2023-05-31T08:08:07;16.20;99.90
35531;DHT22;21637;53.352;-6.356;2023-05-31T08:10:32;16.30;99.90
35531;DHT22;21637;53.352;-6.356;2023-05-31T08:12:58;16.40;99.90
35531;DHT22;21637;53.352;-6.356;2023-05-31T08:15:24;16.40;99.90
35531;DHT22;21637;53.352;-6.356;2023-05-31T08:17:49;16.60;99.90
35531;DHT22;21637;53.352;-6.356;2023-05-31T08:20:16;16.80;99.90
35531;DHT22;21637;53.352;-6.356;2023-05-31T08:22:43;17.10;99.90
35531;DHT22;21637;53.352;-6.356;2023-05-31T08:25:10;17.20;99.90
35531;DHT22;21637;53.352;-6.356;2023-05-31T08:27:39;17.10;99.90
35531;DHT22;21637;53.352;-6.356;2023-05-31T08:30:11;17.10;99.90
35531;DHT22;21637;53.352;-6.356;2023-05-31T08:32:38;17.10;99.90
35531;DHT22;21637;53.352;-6.356;2023-05-31T08:35:04;16.90;99.90
35531;DHT22;21637;53.352;-6.356;2023-05-31T08:37:32;16.70;99.90
35531;DHT22;21637;53.352;-6.356;2023-05-31T08:39:58;16.60;99.90
35531;DHT22;21637;53.352;-6.356;2023-05-31T08:42:47;16.60;99.90
35531;DHT22;21637;53.352;-6.356;2023-05-31T08:45:17;16.70;99.90
35531;DHT22;21637;53.352;-6.356;2023-05-31T08:47:44;16.70;99.90
35531;DHT22;21637;53.352;-6.356;2023-05-31T08:50:11;16.80;99.90
35531;DHT22;21637;53.352;-6.356;2023-05-31T08:52:38;16.60;99.90
35531;DHT22;21637;53.352;-6.356;2023-05-31T08:55:04;16.60;99.90
35531;DHT22;21637;53.352;-6.356;2023-05-31T08:57:31;16.50;99.90
35531;DHT22;21637;53.352;-6.356;2023-05-31T08:59:58;16.50;99.90
35531;DHT22;21637;53.352;-6.356;2023-05-31T09:02:26;16.30;99.90
35531;DHT22;21637;53.352;-6.356;2023-05-31T09:04:53;16.50;99.90
35531;DHT22;21637;53.352;-6.356;2023-05-31T09:07:19;16.50;99.90
35531;DHT22;21637;53.352;-6.356;2023-05-31T09:09:45;16.50;99.90
35531;DHT22;21637;53.352;-6.356;2023-05-31T09:12:11;16.70;99.90
35531;DHT22;21637;53.352;-6.356;2023-05-31T09:14:37;16.80;99.90
35531;DHT22;21637;53.352;-6.356;2023-05-31T09:17:04;16.60;99.90
35531;DHT22;21637;53.352;-6.356;2023-05-31T09:19:30;16.20;99.90
35531;DHT22;21637;53.352;-6.356;2023-05-31T09:21:56;16.10;99.90
35531;DHT22;21637;53.352;-6.356;2023-05-31T09:24:21;16.00;99.90
35531;DHT22;21637;53.352;-6.356;2023-05-31T09:26:52;16.00;99.90
35531;DHT22;21637;53.352;-6.356;2023-05-31T09:29:18;15.70;99.90
35531;DHT22;21637;53.352;-6.356;2023-05-31T09:31:45;15.90;99.90
35531;DHT22;21637;53.352;-6.356;2023-05-31T09:34:29;16.10;99.90
35531;DHT22;21637;53.352;-6.356;2023-05-31T09:36:58;16.20;99.90
35531;DHT22;21637;53.352;-6.356;2023-05-31T09:39:24;16.30;99.90
35531;DHT22;21637;53.352;-6.356;2023-05-31T09:41:50;16.40;99.90
35531;DHT22;21637;53.352;-6.356;2023-05-31T09:44:17;16.40;99.90
35531;DHT22;21637;53.352;-6.356;2023-05-31T09:46:45;16.30;99.90
35531;DHT22;21637;53.352;-6.356;2023-05-31T09:49:12;16.50;99.90
35531;DHT22;21637;53.352;-6.356;2023-05-31T09:51:38;16.60;99.90
35531;DHT22;21637;53.352;-6.356;2023-05-31T09:54:14;16.40;99.90
35531;DHT22;21637;53.352;-6.356;2023-05-31T09:56:42;16.30;99.90
35531;DHT22;21637;53.352;-6.356;2023-05-31T09:59:09;16.50;99.90
35531;DHT22;21637;53.352;-6.356;2023-05-31T10:01:36;16.70;99.90
35531;DHT22;21637;53.352;-6.356;2023-05-31T10:04:03;16.70;99.90
35531;DHT22;21637;53.352;-6.356;2023-05-31T10:06:30;16.70;99.90
35531;DHT22;21637;53.352;-6.356;2023-05-31T10:09:05;16.70;99.90
35531;DHT22;21637;53.352;-6.356;2023-05-31T10:11:35;16.80;99.90
35531;DHT22;21637;53.352;-6.356;2023-05-31T10:14:03;16.80;99.90
35531;DHT22;21637;53.352;-6.356;2023-05-31T10:16:42;16.90;99.90
35531;DHT22;21637;53.352;-6.356;2023-05-31T10:19:11;16.90;99.90
35531;DHT22;21637;53.352;-6.356;2023-05-31T10:21:42;16.90;99.90
35531;DHT22;21637;53.352;-6.356;2023-05-31T10:24:14;17.00;99.90
35531;DHT22;21637;53.352;-6.356;2023-05-31T10:30:02;16.30;99.90
35531;DHT22;21637;53.352;-6.356;2023-05-31T10:32:40;16.20;99.90
35531;DHT22;21637;53.352;-6.356;2023-05-31T10:35:09;16.10;99.90
35531;DHT22;21637;53.352;-6.356;2023-05-31T10:37:39;16.30;99.90
35531;DHT22;21637;53.352;-6.356;2023-05-31T10:40:15;16.20;99.90
35531;DHT22;21637;53.352;-6.356;2023-05-31T10:45:45;16.30;99.90
35531;DHT22;21637;53.352;-6.356;2023-05-31T10:50:57;16.70;99.90
35531;DHT22;21637;53.352;-6.356;2023-05-31T10:53:32;16.60;99.90
35531;DHT22;21637;53.352;-6.356;2023-05-31T10:56:04;16.70;99.90
35531;DHT22;21637;53.352;-6.356;2023-05-31T10:58:38;16.30;99.90
35531;DHT22;21637;53.352;-6.356;2023-05-31T11:01:07;16.40;99.90
35531;DHT22;21637;53.352;-6.356;2023-05-31T11:03:34;16.10;99.90
35531;DHT22;21637;53.352;-6.356;2023-05-31T11:06:06;16.10;99.90
35531;DHT22;21637;53.352;-6.356;2023-05-31T11:08:34;16.10;99.90
35531;DHT22;21637;53.352;-6.356;2023-05-31T11:14:02;15.60;99.90
35531;DHT22;21637;53.352;-6.356;2023-05-31T11:16:32;15.90;99.90
35531;DHT22;21637;53.352;-6.356;2023-05-31T11:19:03;15.90;99.90
35531;DHT22;21637;53.352;-6.356;2023-05-31T11:21:54;15.70;99.90
35531;DHT22;21637;53.352;-6.356;2023-05-31T11:27:20;16.00;99.90
35531;DHT22;21637;53.352;-6.356;2023-05-31T11:32:19;16.10;99.90
35531;DHT22;21637;53.352;-6.356;2023-05-31T11:34:52;16.30;99.90
35531;DHT22;21637;53.352;-6.356;2023-05-31T11:37:22;16.10;99.90
35531;DHT22;21637;53.352;-6.356;2023-05-31T11:39:48;16.30;99.90
35531;DHT22;21637;53.352;-6.356;2023-05-31T11:42:14;16.30;99.90
35531;DHT22;21637;53.352;-6.356;2023-05-31T11:44:45;16.20;99.90
35531;DHT22;21637;53.352;-6.356;2023-05-31T11:47:19;16.10;99.90
35531;DHT22;21637;53.352;-6.356;2023-05-31T11:49:45;16.20;99.90
35531;DHT22;21637;53.352;-6.356;2023-05-31T11:52:16;16.20;99.90
35531;DHT22;21637;53.352;-6.356;2023-05-31T11:54:43;16.20;99.90
35531;DHT22;21637;53.352;-6.356;2023-05-31T11:57:10;16.30;99.90
35531;DHT22;21637;53.352;-6.356;2023-05-31T11:59:37;16.40;99.90
35531;DHT22;21637;53.352;-6.356;2023-05-31T12:02:05;16.60;99.90
35531;DHT22;21637;53.352;-6.356;2023-05-31T12:04:37;16.60;99.90
35531;DHT22;21637;53.352;-6.356;2023-05-31T12:07:05;16.50;99.90
35531;DHT22;21637;53.352;-6.356;2023-05-31T12:09:32;16.20;99.90
35531;DHT22;21637;53.352;-6.356;2023-05-31T12:11:59;16.30;99.90
35531;DHT22;21637;53.352;-6.356;2023-05-31T12:14:26;16.40;99.90
35531;DHT22;21637;53.352;-6.356;2023-05-31T12:16:53;16.60;99.90
35531;DHT22;21637;53.352;-6.356;2023-05-31T12:19:19;16.30;99.90
35531;DHT22;21637;53.352;-6.356;2023-05-31T12:21:46;16.30;99.90
35531;DHT22;21637;53.352;-6.356;2023-05-31T12:24:16;16.40;99.90
35531;DHT22;21637;53.352;-6.356;2023-05-31T12:26:44;16.20;99.90
35531;DHT22;21637;53.352;-6.356;2023-05-31T12:29:11;16.40;99.90
35531;DHT22;21637;53.352;-6.356;2023-05-31T12:31:38;16.40;99.90
35531;DHT22;21637;53.352;-6.356;2023-05-31T12:36:48;16.50;99.90
35531;DHT22;21637;53.352;-6.356;2023-05-31T12:39:24;16.20;99.90
35531;DHT22;21637;53.352;-6.356;2023-05-31T12:41:50;16.40;99.90
35531;DHT22;21637;53.352;-6.356;2023-05-31T12:44:18;16.20;99.90
35531;DHT22;21637;53.352;-6.356;2023-05-31T12:46:48;16.20;99.90
35531;DHT22;21637;53.352;-6.356;2023-05-31T12:49:18;16.30;99.90
35531;DHT22;21637;53.352;-6.356;2023-05-31T12:51:44;16.40;99.90
35531;DHT22;21637;53.352;-6.356;2023-05-31T12:54:12;16.40;99.90
35531;DHT22;21637;53.352;-6.356;2023-05-31T12:56:38;16.50;99.90
35531;DHT22;21637;53.352;-6.356;2023-05-31T12:59:04;16.70;99.90
35531;DHT22;21637;53.352;-6.356;2023-05-31T13:01:30;16.50;99.90
35531;DHT22;21637;53.352;-6.356;2023-05-31T13:03:57;16.40;99.90
35531;DHT22;21637;53.352;-6.356;2023-05-31T13:06:22;16.50;99.90
35531;DHT22;21637;53.352;-6.356;2023-05-31T13:08:48;16.40;99.90
35531;DHT22;21637;53.352;-6.356;2023-05-31T13:11:14;16.30;99.90
35531;DHT22;21637;53.352;-6.356;2023-05-31T13:13:40;16.50;99.90
35531;DHT22;21637;53.352;-6.356;2023-05-31T13:16:06;16.50;99.90
35531;DHT22;21637;53.352;-6.356;2023-05-31T13:18:31;16.50;99.90
35531;DHT22;21637;53.352;-6.356;2023-05-31T13:20:57;16.30;99.90
35531;DHT22;21637;53.352;-6.356;2023-05-31T13:23:24;16.50;99.90
35531;DHT22;21637;53.352;-6.356;2023-05-31T13:25:50;16.80;99.90
35531;DHT22;21637;53.352;-6.356;2023-05-31T13:28:16;16.90;99.90
35531;DHT22;21637;53.352;-6.356;2023-05-31T13:30:42;16.90;99.90
35531;DHT22;21637;53.352;-6.356;2023-05-31T13:33:08;16.60;99.90
35531;DHT22;21637;53.352;-6.356;2023-05-31T13:35:34;16.40;99.90
35531;DHT22;21637;53.352;-6.356;2023-05-31T13:38:01;16.30;99.90
35531;DHT22;21637;53.352;-6.356;2023-05-31T13:40:27;16.60;99.90
35531;DHT22;21637;53.352;-6.356;2023-05-31T13:42:53;16.90;99.90
35531;DHT22;21637;53.352;-6.356;2023-05-31T13:45:19;16.80;99.90
35531;DHT22;21637;53.352;-6.356;2023-05-31T13:47:45;16.60;99.90
35531;DHT22;21637;53.352;-6.356;2023-05-31T13:50:11;16.80;99.90
35531;DHT22;21637;53.352;-6.356;2023-05-31T13:52:37;17.00;99.90
35531;DHT22;21637;53.352;-6.356;2023-05-31T13:55:03;16.80;99.90
35531;DHT22;21637;53.352;-6.356;2023-05-31T13:57:29;16.60;99.90
35531;DHT22;21637;53.352;-6.356;2023-05-31T13:59:56;16.60;99.90
35531;DHT22;21637;53.352;-6.356;2023-05-31T14:02:23;16.50;99.90
35531;DHT22;21637;53.352;-6.356;2023-05-31T14:04:49;16.60;99.90
35531;DHT22;21637;53.352;-6.356;2023-05-31T14:07:14;16.80;99.90
35531;DHT22;21637;53.352;-6.356;2023-05-31T14:09:41;16.60;99.90
35531;DHT22;21637;53.352;-6.356;2023-05-31T14:12:08;16.50;99.90
35531;DHT22;21637;53.352;-6.356;2023-05-31T14:14:33;16.50;99.90
35531;DHT22;21637;53.352;-6.356;2023-05-31T14:16:59;16.50;99.90
35531;DHT22;21637;53.352;-6.356;2023-05-31T14:19:26;16.50;99.90
35531;DHT22;21637;53.352;-6.356;2023-05-31T14:21:52;16.60;99.90
35531;DHT22;21637;53.352;-6.356;2023-05-31T14:24:17;16.60;99.90
35531;DHT22;21637;53.352;-6.356;2023-05-31T14:26:43;16.60;99.90
35531;DHT22;21637;53.352;-6.356;2023-05-31T14:29:09;16.80;99.90
35531;DHT22;21637;53.352;-6.356;2023-05-31T14:31:35;16.80;99.90
35531;DHT22;21637;53.352;-6.356;2023-05-31T14:34:03;16.90;99.90
35531;DHT22;21637;53.352;-6.356;2023-05-31T14:36:29;16.60;99.90
35531;DHT22;21637;53.352;-6.356;2023-05-31T14:38:55;16.30;99.90
35531;DHT22;21637;53.352;-6.356;2023-05-31T14:41:21;16.40;99.90
35531;DHT22;21637;53.352;-6.356;2023-05-31T14:43:47;16.70;99.90
35531;DHT22;21637;53.352;-6.356;2023-05-31T14:46:13;16.70;99.90
35531;DHT22;21637;53.352;-6.356;2023-05-31T14:48:40;16.60;99.90
35531;DHT22;21637;53.352;-6.356;2023-05-31T14:51:06;16.80;99.90
35531;DHT22;21637;53.352;-6.356;2023-05-31T14:53:32;17.20;99.90
35531;DHT22;21637;53.352;-6.356;2023-05-31T14:55:58;17.10;99.90
35531;DHT22;21637;53.352;-6.356;2023-05-31T14:58:25;17.40;99.90
35531;DHT22;21637;53.352;-6.356;2023-05-31T15:00:51;17.30;99.90
35531;DHT22;21637;53.352;-6.356;2023-05-31T15:03:17;17.30;99.90
35531;DHT22;21637;53.352;-6.356;2023-05-31T15:05:42;17.60;99.90
35531;DHT22;21637;53.352;-6.356;2023-05-31T15:08:08;17.50;99.90
35531;DHT22;21637;53.352;-6.356;2023-05-31T15:10:34;17.80;99.90
35531;DHT22;21637;53.352;-6.356;2023-05-31T15:12:59;17.60;99.90
35531;DHT22;21637;53.352;-6.356;2023-05-31T15:15:25;17.70;99.90
35531;DHT22;21637;53.352;-6.356;2023-05-31T15:17:51;17.60;99.90
35531;DHT22;21637;53.352;-6.356;2023-05-31T15:20:17;17.70;99.90
35531;DHT22;21637;53.352;-6.356;2023-05-31T15:22:44;17.90;99.90
35531;DHT22;21637;53.352;-6.356;2023-05-31T15:25:09;17.90;99.90
35531;DHT22;21637;53.352;-6.356;2023-05-31T15:27:35;18.30;99.90
35531;DHT22;21637;53.352;-6.356;2023-05-31T15:30:01;18.20;99.90
35531;DHT22;21637;53.352;-6.356;2023-05-31T15:32:27;18.60;99.90
35531;DHT22;21637;53.352;-6.356;2023-05-31T15:34:52;18.40;99.90
35531;DHT22;21637;53.352;-6.356;2023-05-31T15:37:18;18.20;99.90
35531;DHT22;21637;53.352;-6.356;2023-05-31T15:39:44;18.20;99.90
35531;DHT22;21637;53.352;-6.356;2023-05-31T15:42:09;18.20;99.90
35531;DHT22;21637;53.352;-6.356;2023-05-31T15:44:35;18.20;99.90
35531;DHT22;21637;53.352;-6.356;2023-05-31T15:47:01;18.40;99.90